Lampasas, TX

7:19 AM CDT on August 21, 2017 (GMT -0500)
Lampasas

Weather History for KLZZ - October, 2012

Change the Weather History Date:

Sunday, October 7, 2012

  Actual Average (KGRK) Record (KGRK)
Temperature  
Mean Temperature 48 °F -  
Max Temperature 53 °F 78 °F 95 °F (2014)
Min Temperature 44 °F 59 °F 46 °F (2000)
Degree Days  
Heating Degree Days 16    
Moisture  
Dew Point 37 °F    
Average Humidity 64    
Maximum Humidity 87    
Minimum Humidity 51    
Precipitation  
Precipitation 0.00 in - - ()
Sea Level Pressure  
Sea Level Pressure 30.22 in    
Wind  
Wind Speed 10 mph (NNE)    
Max Wind Speed 15 mph    
Max Gust Speed 20 mph    
Visibility 10 miles    
Events Rain    
Averages and records for this station are not official NWS values.
T = Trace of Precipitation, MM = Missing Value Source: NWS Daily Summary

Daily Weather History Graph

Daily Weather History Graph

Search for Another Location

Airport or City:

Trip Planner

Search our weather history database for the weather conditions in past years. The results will help you decide how hot, cold, wet, or windy it might be!

Date:

Astronomy

Oct. 07, 2012 Rise Set
Actual Time 7:30 AM CDT 7:09 PM CDT
Civil Twilight 7:06 AM CDT 7:34 PM CDT
Nautical Twilight 6:38 AM CDT 8:02 PM CDT
Astronomical Twilight 6:10 AM CDT 8:30 PM CDT
Moon No Moon Rise 1:53 PM CDT (10/7)
Length of Visible Light 12h 27m
Length of Day
11h 39m
Waning Gibbous, 56% of the Moon is Illuminated
Oct 7
Waning Gibbous
Oct 8
Last Quarter
Oct 15
New
Oct 21
First Quarter
Oct 29
Full

Hourly Weather History & Observations

Time (CDT) Temp. Windchill Dew Point Humidity Pressure Visibility Wind Dir Wind Speed Gust Speed Precip Events Conditions
12:15 AM 50.0 °F - 42.8 °F 76% 30.20 in 10.0 mi North 12.7 mph 18.4 mph N/A   Overcast
12:35 AM 46.4 °F 40.1 °F 41.0 °F 81% 30.20 in 10.0 mi North 15.0 mph 19.6 mph N/A   Overcast
12:55 AM 46.4 °F 41.1 °F 41.0 °F 81% 30.20 in 10.0 mi North 11.5 mph 18.4 mph N/A   Overcast
1:15 AM 46.4 °F 42.4 °F 42.8 °F 87% 30.21 in 7.0 mi North 8.1 mph - N/A   Overcast
1:35 AM 46.4 °F 41.9 °F 41.0 °F 81% 30.22 in 10.0 mi North 9.2 mph - N/A   Overcast
2:15 AM 46.4 °F 42.4 °F 41.0 °F 81% 30.22 in 10.0 mi North 8.1 mph - N/A   Overcast
2:35 AM 46.4 °F 41.5 °F 41.0 °F 81% 30.21 in 10.0 mi NNE 10.4 mph - N/A   Overcast
2:55 AM 46.4 °F 42.4 °F 41.0 °F 81% 30.22 in 10.0 mi NNE 8.1 mph 17.3 mph N/A   Overcast
3:15 AM 46.4 °F 41.5 °F 41.0 °F 81% 30.22 in 10.0 mi NNE 10.4 mph - N/A   Overcast
3:35 AM 46.4 °F 41.9 °F 41.0 °F 81% 30.21 in 10.0 mi North 9.2 mph - N/A   Overcast
3:55 AM 46.4 °F 41.9 °F 39.2 °F 76% 30.22 in 10.0 mi NNE 9.2 mph - N/A   Overcast
4:15 AM 44.6 °F 40.2 °F 39.2 °F 81% 30.22 in 10.0 mi North 8.1 mph - N/A   Overcast
4:35 AM 44.6 °F 39.7 °F 37.4 °F 76% 30.21 in 10.0 mi North 9.2 mph - N/A   Overcast
4:55 AM 44.6 °F 40.2 °F 37.4 °F 76% 30.22 in 10.0 mi North 8.1 mph - N/A   Overcast
5:15 AM 44.6 °F 39.7 °F 37.4 °F 76% 30.22 in 10.0 mi North 9.2 mph - N/A   Overcast
5:35 AM 46.4 °F 42.4 °F 37.4 °F 71% 30.22 in 10.0 mi NNE 8.1 mph - N/A   Overcast
5:55 AM 44.6 °F 39.7 °F 37.4 °F 76% 30.22 in 10.0 mi North 9.2 mph - N/A   Overcast
6:15 AM 44.6 °F 40.7 °F 37.4 °F 76% 30.23 in 10.0 mi North 6.9 mph - N/A   Overcast
6:55 AM 44.6 °F 39.7 °F 37.4 °F 76% 30.24 in 10.0 mi NNE 9.2 mph - N/A   Overcast
7:15 AM 46.4 °F 41.1 °F 37.4 °F 71% 30.24 in 10.0 mi NNE 11.5 mph - N/A   Overcast
7:35 AM 46.4 °F 41.1 °F 35.6 °F 66% 30.25 in 10.0 mi NNE 11.5 mph 18.4 mph N/A   Overcast
7:55 AM 46.4 °F 42.4 °F 35.6 °F 66% 30.25 in 10.0 mi NNE 8.1 mph - N/A   Overcast
8:15 AM 46.4 °F 42.9 °F 35.6 °F 66% 30.26 in 10.0 mi NNE 6.9 mph - N/A   Overcast
8:55 AM 46.4 °F 41.1 °F 35.6 °F 66% 30.27 in 10.0 mi NNE 11.5 mph 17.3 mph N/A   Overcast
9:15 AM 46.4 °F 41.5 °F 35.6 °F 66% 30.26 in 10.0 mi NNE 10.4 mph 17.3 mph N/A   Overcast
9:35 AM 46.4 °F 42.4 °F 35.6 °F 66% 30.27 in 10.0 mi NNE 8.1 mph 17.3 mph N/A   Overcast
9:55 AM 46.4 °F 41.1 °F 33.8 °F 62% 30.26 in 10.0 mi NNE 11.5 mph 16.1 mph N/A   Overcast
10:15 AM 50.0 °F - 37.4 °F 62% 30.26 in 10.0 mi NE 12.7 mph 17.3 mph N/A   Overcast
10:35 AM 50.0 °F - 35.6 °F 58% 30.26 in 10.0 mi NE 10.4 mph - N/A   Overcast
10:55 AM 50.0 °F - 35.6 °F 58% 30.26 in 10.0 mi NNE 11.5 mph - N/A   Overcast
11:15 AM 50.0 °F - 35.6 °F 58% 30.26 in 10.0 mi NNE 11.5 mph - N/A   Overcast
11:35 AM 50.0 °F - 35.6 °F 58% 30.27 in 10.0 mi NE 11.5 mph 16.1 mph N/A   Overcast
12:15 PM 51.8 °F - 35.6 °F 54% 30.25 in 10.0 mi North 10.4 mph 16.1 mph N/A   Overcast
12:35 PM 51.8 °F - 35.6 °F 54% 30.24 in 10.0 mi North 6.9 mph 17.3 mph N/A   Overcast
12:55 PM 51.8 °F - 35.6 °F 54% 30.23 in 10.0 mi NNE 11.5 mph 17.3 mph N/A   Overcast
1:15 PM 51.8 °F - 35.6 °F 54% 30.22 in 10.0 mi North 9.2 mph 16.1 mph N/A   Overcast
1:35 PM 51.8 °F - 35.6 °F 54% 30.20 in 10.0 mi NE 5.8 mph 17.3 mph N/A   Overcast
1:55 PM 53.6 °F - 35.6 °F 51% 30.20 in 10.0 mi NNE 6.9 mph - N/A   Overcast
2:15 PM 51.8 °F - 35.6 °F 54% 30.20 in 10.0 mi NE 9.2 mph - N/A   Overcast
2:35 PM 53.6 °F - 37.4 °F 54% 30.19 in 10.0 mi NNE 8.1 mph - N/A   Overcast
2:55 PM 51.8 °F - 35.6 °F 54% 30.18 in 10.0 mi NNE 5.8 mph - N/A   Overcast
3:15 PM 53.6 °F - 37.4 °F 54% 30.18 in 10.0 mi NE 8.1 mph - N/A   Overcast
3:35 PM 51.8 °F - 35.6 °F 54% 30.18 in 10.0 mi NNE 6.9 mph - N/A   Overcast
3:55 PM 51.8 °F - 35.6 °F 54% 30.17 in 10.0 mi North 8.1 mph - N/A   Overcast
4:15 PM 51.8 °F - 35.6 °F 54% 30.17 in 10.0 mi NNE 5.8 mph - N/A   Overcast
4:35 PM 51.8 °F - 35.6 °F 54% 30.17 in 10.0 mi North 4.6 mph - N/A   Overcast
4:55 PM 51.8 °F - 35.6 °F 54% 30.17 in 10.0 mi North 9.2 mph - N/A   Overcast
5:15 PM 51.8 °F - 35.6 °F 54% 30.17 in 10.0 mi NNE 8.1 mph - N/A   Overcast
5:35 PM 51.8 °F - 35.6 °F 54% 30.17 in 10.0 mi NNE 8.1 mph - N/A   Overcast
5:55 PM 50.0 °F - 35.6 °F 58% 30.18 in 10.0 mi North 5.8 mph - N/A   Overcast
6:15 PM 50.0 °F - 35.6 °F 58% 30.18 in 10.0 mi North 8.1 mph - N/A Rain Light Rain
6:35 PM 50.0 °F - 35.6 °F 58% 30.18 in 10.0 mi North 8.1 mph - N/A   Overcast
6:55 PM 50.0 °F - 35.6 °F 58% 30.19 in 10.0 mi North 6.9 mph - N/A   Overcast
7:15 PM 50.0 °F - 35.6 °F 58% 30.19 in 10.0 mi NNE 8.1 mph - N/A   Overcast
7:35 PM 50.0 °F - 35.6 °F 58% 30.20 in 10.0 mi NNE 9.2 mph - N/A   Overcast
7:55 PM 50.0 °F - 35.6 °F 58% 30.21 in 10.0 mi North 9.2 mph - N/A   Overcast
8:15 PM 50.0 °F - 33.8 °F 54% 30.21 in 10.0 mi NNE 4.6 mph - N/A   Overcast
8:35 PM 50.0 °F - 33.8 °F 54% 30.22 in 10.0 mi North 10.4 mph - N/A   Overcast
8:55 PM 50.0 °F - 33.8 °F 54% 30.23 in 10.0 mi NNE 8.1 mph 17.3 mph N/A   Overcast
9:15 PM 50.0 °F - 33.8 °F 54% 30.23 in 10.0 mi North 8.1 mph - N/A   Overcast
9:35 PM 50.0 °F - 33.8 °F 54% 30.24 in 10.0 mi North 9.2 mph - N/A   Overcast
9:55 PM 50.0 °F - 33.8 °F 54% 30.23 in 10.0 mi North 8.1 mph - N/A   Overcast
10:15 PM 50.0 °F - 33.8 °F 54% 30.24 in 10.0 mi NNE 4.6 mph - N/A   Overcast
10:35 PM 48.2 °F - 33.8 °F 58% 30.24 in 10.0 mi NNE 5.8 mph - N/A Rain Light Rain
10:55 PM 46.4 °F 42.9 °F 33.8 °F 62% 30.23 in 10.0 mi NNE 6.9 mph - N/A   Overcast
11:15 PM 46.4 °F 43.5 °F 33.8 °F 62% 30.23 in 10.0 mi NNE 5.8 mph - N/A Rain Light Rain
11:35 PM 46.4 °F 43.5 °F 37.4 °F 71% 30.23 in 10.0 mi NNE 5.8 mph - N/A   Overcast
11:55 PM 46.4 °F 45.2 °F 37.4 °F 71% 30.23 in 10.0 mi NNE 3.5 mph - N/A   Overcast